Briefing drone pour Tournon-sur-rhone

Rechercher une autre localisation

Conditions de vol :


Nous sommes le : Samedi 02 juillet 2022
Il est 22:38 UTC (00:38 LT)

Lever de soleil : 03:32 UTC (05:32 LT)
Coucher de soleil : 19:57 UTC (21:57 LT)

Météo

L'essentiel des conditions de vol

VIGILANCE MÉTÉO FRANCE - Ardèche (07)
Pas de vigilances particulieres
CARTE TEMSI
CARTES DES FRONTS
METAR de LFLU
LFLU 011800Z AUTO 35015KT CAVOK 22/10 Q1018

Date d'émission: 01/07/2022
Heure d'émission: 18:00 UTC
Vent: 350° pour 15 KT (28 km/h)
Visibilité horizontale: > 10 km
Plafond : Plafond et visibilité OK (CAVOK)
Température: 22 °C
Point de rosée: 10 °C
Humidité: 46%
Pression (QNH): 1018 hPa
Prévision 24h pour Valence (10 km)
Vent : 360° pour 3 KT (11 km/h)
Temperature Maxi: 29 °C
Temperature Min: 29 °C
Humidité : 30%
Condition : Ciel dégagé



Warning: count(): Parameter must be an array or an object that implements Countable in /homepages/6/d509196549/htdocs/droneoxygene/briefing.php on line 743
WEBCAM POUR TOURNON-SUR-RHONE

Réglementation

Voler en sécurité

CARTES AERONAUTIQUE 1/500.000
CARTES VAC (LFLU)
SUP AIP




Chargement des AIP...
NOTAM (TOURNON-SUR-RHONE + Terrain à proximité / FIR )




Chargement des NOTAMS...
CONTACT PREFECTURE 07


Avertissement : Les données mises à disposition sont indicatives. Oxygène Drone ne pourra être tenu responsable de dégâts causés aux biens et aux personnes.